createdAt,value
2023-02-22T00:01:50.857Z,59.67
2023-02-22T00:04:21.270Z,59.70
2023-02-22T00:06:49.824Z,59.77
2023-02-22T00:09:20.644Z,59.80
2023-02-22T00:11:48.949Z,59.80
2023-02-22T00:14:20.281Z,59.82
2023-02-22T00:16:47.491Z,59.94
2023-02-22T00:19:14.085Z,59.98
2023-02-22T00:21:40.686Z,60.04
2023-02-22T00:24:23.157Z,60.16
2023-02-22T00:26:52.813Z,60.25
2023-02-22T00:29:19.399Z,60.29
2023-02-22T00:31:46.027Z,60.38
2023-02-22T00:34:14.474Z,60.44
2023-02-22T00:36:50.434Z,60.50
2023-02-22T00:39:18.005Z,60.55
2023-02-22T00:41:45.196Z,60.65
2023-02-22T00:44:12.226Z,60.66
2023-02-22T00:46:39.481Z,60.63
2023-02-22T00:49:06.296Z,60.67
2023-02-22T00:51:33.928Z,60.70
2023-02-22T00:54:01.064Z,60.75
2023-02-22T00:56:27.918Z,60.81
2023-02-22T00:58:54.834Z,60.69
2023-02-22T01:01:21.512Z,60.51
2023-02-22T01:03:48.578Z,60.51
2023-02-22T01:06:16.460Z,60.52
2023-02-22T01:08:48.137Z,60.53
2023-02-22T01:11:17.231Z,60.54
2023-02-22T01:13:47.319Z,60.54
2023-02-22T01:16:14.322Z,60.59
2023-02-22T01:18:41.878Z,60.70
2023-02-22T01:21:08.599Z,60.83
2023-02-22T01:23:35.290Z,60.80
2023-02-22T01:26:04.325Z,60.73
2023-02-22T01:28:31.762Z,60.69
2023-02-22T01:30:58.469Z,60.74
2023-02-22T01:33:25.590Z,60.71
2023-02-22T01:35:52.660Z,60.71
2023-02-22T01:38:19.267Z,60.82
2023-02-22T01:40:51.707Z,60.89
2023-02-22T01:43:29.583Z,60.86
2023-02-22T01:46:03.678Z,60.87
2023-02-22T01:48:42.259Z,60.76
2023-02-22T01:51:18.863Z,60.86
2023-02-22T01:54:06.466Z,61.00
2023-02-22T01:56:37.251Z,61.12
2023-02-22T01:59:09.390Z,61.19
2023-02-22T02:01:39.305Z,61.30
2023-02-22T02:04:11.212Z,61.45
2023-02-22T02:06:38.978Z,61.55
2023-02-22T02:09:34.807Z,61.66
2023-02-22T02:12:02.870Z,61.77
2023-02-22T02:14:32.052Z,61.89
2023-02-22T02:17:01.569Z,61.91
2023-02-22T02:19:51.418Z,61.96
2023-02-22T02:22:50.113Z,62.05
2023-02-22T02:26:04.027Z,62.00
2023-02-22T02:29:14.704Z,61.71
2023-02-22T02:32:29.914Z,61.70
2023-02-22T02:35:21.703Z,61.62
2023-02-22T02:38:19.445Z,61.62
2023-02-22T02:41:10.946Z,61.66
2023-02-22T02:43:49.607Z,61.70
2023-02-22T02:46:32.271Z,61.65
2023-02-22T02:49:04.141Z,61.64
2023-02-22T02:51:37.673Z,61.68
2023-02-22T02:54:07.472Z,61.69
2023-02-22T02:56:34.807Z,61.76
2023-02-22T02:59:01.479Z,61.75
2023-02-22T03:01:48.561Z,61.79
2023-02-22T03:04:54.185Z,61.78
2023-02-22T03:07:31.482Z,61.90
2023-02-22T03:10:27.192Z,61.94
2023-02-22T03:13:17.826Z,62.09
2023-02-22T03:16:14.559Z,62.19
2023-02-22T03:18:56.762Z,62.20
2023-02-22T03:21:33.703Z,62.26
2023-02-22T03:24:14.479Z,62.26
2023-02-22T03:26:47.698Z,62.21
2023-02-22T03:29:19.441Z,62.22
2023-02-22T03:32:14.925Z,62.20
2023-02-22T03:34:53.061Z,62.20
2023-02-22T03:37:28.886Z,62.25
2023-02-22T03:39:58.107Z,62.20
2023-02-22T03:42:32.201Z,62.15
2023-02-22T03:45:01.467Z,62.07
2023-02-22T03:47:42.553Z,62.10
2023-02-22T03:50:17.122Z,62.07
2023-02-22T03:52:44.827Z,62.04
2023-02-22T03:55:17.768Z,62.09
2023-02-22T03:57:52.942Z,62.13
2023-02-22T04:00:26.962Z,62.22
2023-02-22T04:02:54.732Z,62.29
2023-02-22T04:05:22.000Z,62.32
2023-02-22T04:07:49.416Z,62.34
2023-02-22T04:10:16.947Z,62.33
2023-02-22T04:12:43.895Z,62.37
2023-02-22T04:15:16.758Z,62.40
2023-02-22T04:17:44.061Z,62.44
2023-02-22T04:20:14.652Z,62.50
2023-02-22T04:22:48.662Z,62.58
2023-02-22T04:25:16.197Z,62.59
2023-02-22T04:27:43.472Z,62.60
2023-02-22T04:30:12.244Z,62.60
2023-02-22T04:32:39.579Z,62.69
2023-02-22T04:35:07.492Z,62.62
2023-02-22T04:37:34.763Z,62.54
2023-02-22T04:40:08.604Z,62.40
2023-02-22T04:42:37.525Z,62.40
2023-02-22T04:45:08.004Z,62.40
2023-02-22T04:47:36.787Z,62.40
2023-02-22T04:50:09.438Z,62.44
2023-02-22T04:52:36.186Z,62.51
2023-02-22T04:55:04.888Z,62.55
2023-02-22T04:57:32.857Z,62.63
2023-02-22T04:59:59.657Z,62.65
2023-02-22T05:02:26.641Z,62.68
2023-02-22T05:04:53.561Z,62.68
2023-02-22T05:07:20.245Z,62.70
2023-02-22T05:09:46.842Z,62.70
2023-02-22T05:12:13.460Z,62.70
2023-02-22T05:14:40.119Z,62.68
2023-02-22T05:17:06.716Z,62.55
2023-02-22T05:19:33.397Z,62.56
2023-02-22T05:22:00.273Z,62.46
2023-02-22T05:24:26.900Z,62.24
2023-02-22T05:26:53.557Z,62.06
2023-02-22T05:29:21.183Z,61.93
2023-02-22T05:31:48.023Z,61.83
2023-02-22T05:34:15.983Z,61.68
2023-02-22T05:36:42.856Z,61.58
2023-02-22T05:39:09.519Z,61.47
2023-02-22T05:41:36.100Z,61.30
2023-02-22T05:44:03.173Z,61.28
2023-02-22T05:46:30.021Z,61.22
2023-02-22T05:48:56.640Z,61.08
2023-02-22T05:51:23.439Z,61.00
2023-02-22T05:53:52.272Z,60.96
2023-02-22T05:56:27.054Z,60.75
2023-02-22T05:58:54.671Z,60.70
2023-02-22T06:01:22.023Z,60.71
2023-02-22T06:03:52.717Z,60.60
2023-02-22T06:06:22.246Z,60.49
2023-02-22T06:08:49.594Z,60.37
2023-02-22T06:11:16.848Z,60.33
2023-02-22T06:13:51.610Z,60.30
2023-02-22T06:16:21.178Z,60.28
2023-02-22T06:18:48.707Z,60.22
2023-02-22T06:21:15.899Z,60.15
2023-02-22T06:23:42.886Z,60.20
2023-02-22T06:26:09.436Z,60.32
2023-02-22T06:28:36.186Z,60.39
2023-02-22T06:31:02.966Z,60.48
2023-02-22T06:33:29.605Z,60.35
2023-02-22T06:35:56.158Z,60.21
2023-02-22T06:38:25.587Z,60.20
2023-02-22T06:40:52.207Z,60.20
2023-02-22T06:43:18.938Z,60.23
2023-02-22T06:45:45.731Z,60.18
2023-02-22T06:48:13.123Z,60.19
2023-02-22T06:50:39.801Z,60.62
2023-02-22T06:53:06.923Z,60.68
2023-02-22T06:55:34.815Z,60.63
2023-02-22T06:58:04.773Z,60.53
2023-02-22T07:00:32.997Z,60.42
2023-02-22T07:03:00.479Z,60.41
2023-02-22T07:05:28.751Z,60.30
2023-02-22T07:08:04.872Z,60.18
2023-02-22T07:10:33.390Z,60.03
2023-02-22T07:13:01.447Z,59.98
2023-02-22T07:15:30.238Z,60.00
2023-02-22T07:17:57.308Z,59.92
2023-02-22T07:20:25.688Z,59.73
2023-02-22T07:22:53.228Z,59.76
2023-02-22T07:25:21.580Z,59.72
2023-02-22T07:27:48.808Z,59.69
2023-02-22T07:30:32.322Z,59.71
2023-02-22T07:33:02.429Z,59.44
2023-02-22T07:35:54.413Z,59.35
2023-02-22T07:38:21.362Z,59.22
2023-02-22T07:40:48.419Z,59.11
2023-02-22T07:43:23.616Z,58.78
2023-02-22T07:45:55.706Z,58.56
2023-02-22T07:48:28.258Z,58.48
2023-02-22T07:50:54.914Z,58.25
2023-02-22T07:53:30.255Z,57.85
2023-02-22T07:56:05.782Z,57.76
2023-02-22T07:58:33.104Z,57.74
2023-02-22T08:01:03.812Z,57.50
2023-02-22T08:03:36.855Z,57.17
2023-02-22T08:06:06.512Z,57.02
2023-02-22T08:08:34.412Z,56.88
2023-02-22T08:11:01.121Z,57.23
2023-02-22T08:13:28.274Z,56.92
2023-02-22T08:15:55.268Z,56.58
2023-02-22T08:18:24.031Z,56.36
2023-02-22T08:20:52.732Z,56.33
2023-02-22T08:23:22.705Z,56.26
2023-02-22T08:25:49.497Z,55.67
2023-02-22T08:28:23.512Z,55.72
2023-02-22T08:30:51.383Z,55.27
2023-02-22T08:33:19.808Z,54.94
2023-02-22T08:35:50.287Z,54.80
2023-02-22T08:38:25.547Z,54.27
2023-02-22T08:40:52.281Z,53.89
2023-02-22T08:43:20.986Z,53.86
2023-02-22T08:45:48.621Z,53.51
2023-02-22T08:48:16.668Z,53.35
2023-02-22T08:50:44.310Z,52.99
2023-02-22T08:53:14.401Z,52.71
2023-02-22T08:55:42.301Z,52.64
2023-02-22T08:58:09.870Z,52.42
2023-02-22T09:00:39.150Z,51.70
2023-02-22T09:03:10.669Z,51.17
2023-02-22T09:05:37.628Z,50.84
2023-02-22T09:08:04.678Z,51.01
2023-02-22T09:10:34.128Z,50.68
2023-02-22T09:13:01.575Z,50.39
2023-02-22T09:15:28.926Z,50.39
2023-02-22T09:17:56.055Z,49.98
2023-02-22T09:20:25.104Z,49.57
2023-02-22T09:22:52.469Z,48.78
2023-02-22T09:25:20.777Z,47.87
2023-02-22T09:27:55.406Z,45.11
2023-02-22T09:30:33.977Z,44.34
2023-02-22T09:33:10.112Z,43.94
2023-02-22T09:35:42.392Z,42.94
2023-02-22T09:38:10.513Z,41.83
2023-02-22T09:40:46.151Z,40.12
2023-02-22T09:43:33.209Z,38.17
2023-02-22T09:46:19.318Z,35.21
2023-02-22T09:49:05.126Z,33.11
2023-02-22T09:51:49.292Z,33.50
2023-02-22T09:54:36.078Z,34.44
2023-02-22T09:57:08.788Z,33.17
2023-02-22T09:59:50.614Z,28.14
2023-02-22T10:02:37.182Z,30.62
2023-02-22T10:05:20.152Z,29.68
2023-02-22T10:08:01.265Z,29.22
2023-02-22T10:10:35.214Z,28.51
2023-02-22T10:13:32.350Z,27.47
2023-02-22T10:16:40.733Z,25.95
2023-02-22T10:19:19.214Z,26.14
2023-02-22T10:22:00.834Z,24.12
2023-02-22T10:24:56.148Z,24.99
2023-02-22T10:27:34.180Z,25.18
2023-02-22T10:30:23.552Z,23.89
2023-02-22T10:33:06.592Z,23.44
2023-02-22T10:35:36.722Z,23.02
2023-02-22T10:38:20.974Z,23.16
2023-02-22T10:41:10.848Z,23.56
2023-02-22T10:43:39.444Z,23.11
2023-02-22T10:46:09.608Z,24.12
2023-02-22T10:48:40.786Z,24.32
2023-02-22T10:51:09.965Z,23.21
2023-02-22T10:53:41.593Z,24.23
2023-02-22T10:56:21.447Z,24.29
2023-02-22T10:59:02.541Z,24.52
2023-02-22T11:01:32.328Z,24.70
2023-02-22T11:04:22.701Z,25.08
2023-02-22T11:07:10.597Z,25.44
2023-02-22T11:09:51.500Z,25.77
2023-02-22T11:12:27.393Z,25.86
2023-02-22T11:14:54.986Z,25.79
2023-02-22T11:17:31.702Z,26.07
2023-02-22T11:20:00.160Z,26.71
2023-02-22T11:22:35.573Z,26.40
2023-02-22T11:25:07.411Z,26.97
2023-02-22T11:27:46.905Z,27.15
2023-02-22T11:30:29.322Z,27.29
2023-02-22T11:33:23.627Z,28.11
2023-02-22T11:35:57.270Z,28.33
2023-02-22T11:38:32.619Z,28.14
2023-02-22T11:41:22.900Z,28.69
2023-02-22T11:43:51.892Z,29.64
2023-02-22T11:46:32.491Z,30.02
2023-02-22T11:49:04.681Z,30.21
2023-02-22T11:51:49.410Z,30.52
2023-02-22T11:54:38.218Z,30.61
2023-02-22T11:57:07.930Z,30.57
2023-02-22T11:59:55.685Z,30.13
2023-02-22T12:02:37.457Z,30.03
2023-02-22T12:05:59.444Z,30.17
2023-02-22T12:08:44.907Z,29.95
2023-02-22T12:11:29.098Z,30.17
2023-02-22T12:14:11.817Z,30.43
2023-02-22T12:17:03.227Z,30.70
2023-02-22T12:19:48.740Z,30.86
2023-02-22T12:22:29.097Z,30.62
2023-02-22T12:25:10.330Z,31.14
2023-02-22T12:27:46.394Z,31.08
2023-02-22T12:30:20.471Z,31.30
2023-02-22T12:32:52.677Z,31.22
2023-02-22T12:35:34.965Z,31.40
2023-02-22T12:38:06.743Z,31.41
2023-02-22T12:41:18.686Z,31.22
2023-02-22T12:43:52.764Z,31.53
2023-02-22T12:46:44.559Z,31.37
2023-02-22T12:49:34.714Z,31.63
2023-02-22T12:52:21.943Z,31.98
2023-02-22T12:54:59.755Z,32.30
2023-02-22T12:57:42.583Z,32.43
2023-02-22T13:00:38.223Z,32.44
2023-02-22T13:03:38.754Z,32.23
2023-02-22T13:06:19.781Z,32.21
2023-02-22T13:09:18.767Z,32.32
2023-02-22T13:12:12.989Z,32.60
2023-02-22T13:15:03.091Z,32.77
2023-02-22T13:18:07.820Z,32.77
2023-02-22T13:20:45.180Z,32.68
2023-02-22T13:23:40.112Z,32.63
2023-02-22T13:26:31.193Z,32.67
2023-02-22T13:29:23.197Z,32.67
2023-02-22T13:32:45.506Z,32.71
2023-02-22T13:35:15.185Z,32.81
2023-02-22T13:37:59.664Z,32.53
2023-02-22T13:40:49.186Z,32.61
2023-02-22T13:43:56.334Z,32.63
2023-02-22T13:46:33.877Z,32.50
2023-02-22T13:49:09.459Z,32.60
2023-02-22T13:51:59.144Z,32.53
2023-02-22T13:54:41.962Z,32.63
2023-02-22T13:57:22.310Z,32.52
2023-02-22T13:59:49.180Z,32.73
2023-02-22T14:03:03.599Z,32.67
2023-02-22T14:05:39.641Z,33.05
2023-02-22T14:08:28.904Z,32.76
2023-02-22T14:10:57.609Z,32.69
2023-02-22T14:13:26.911Z,32.94
2023-02-22T14:16:02.524Z,33.08
2023-02-22T14:18:36.462Z,33.18
2023-02-22T14:21:10.274Z,33.07
2023-02-22T14:23:42.396Z,33.14
2023-02-22T14:26:14.841Z,33.19
2023-02-22T14:28:52.214Z,33.39
2023-02-22T14:31:35.911Z,33.43
2023-02-22T14:34:14.239Z,33.35
2023-02-22T14:37:05.425Z,33.36
2023-02-22T14:39:43.453Z,33.65
2023-02-22T14:42:30.135Z,33.86
2023-02-22T14:45:17.127Z,34.44
2023-02-22T14:48:20.411Z,34.70
2023-02-22T14:50:56.127Z,35.15
2023-02-22T14:53:38.446Z,35.46
2023-02-22T14:56:25.610Z,35.53
2023-02-22T14:59:07.996Z,35.50
2023-02-22T15:01:49.053Z,35.62
2023-02-22T15:04:27.088Z,35.73
2023-02-22T15:06:58.158Z,35.75
2023-02-22T15:09:34.676Z,35.88
2023-02-22T15:12:04.797Z,35.83
2023-02-22T15:14:38.991Z,35.78
2023-02-22T15:17:24.921Z,35.87
2023-02-22T15:19:52.811Z,36.03
2023-02-22T15:22:28.763Z,36.00
2023-02-22T15:25:08.721Z,36.04
2023-02-22T15:27:37.430Z,36.06
2023-02-22T15:30:18.819Z,36.19
2023-02-22T15:33:02.654Z,36.19
2023-02-22T15:35:33.862Z,36.33
2023-02-22T15:38:12.305Z,36.38
2023-02-22T15:40:43.436Z,36.33
2023-02-22T15:43:24.539Z,36.23
2023-02-22T15:45:52.148Z,36.34
2023-02-22T15:48:19.383Z,36.47
2023-02-22T15:51:04.080Z,36.48
2023-02-22T15:53:41.828Z,36.47
2023-02-22T15:56:30.097Z,36.58
2023-02-22T15:59:14.040Z,36.63
2023-02-22T16:01:48.204Z,36.63
2023-02-22T16:04:26.481Z,36.68
2023-02-22T16:07:16.926Z,36.73
2023-02-22T16:09:52.236Z,36.79
2023-02-22T16:12:21.904Z,36.69
2023-02-22T16:14:50.060Z,36.69
2023-02-22T16:17:30.640Z,36.72
2023-02-22T16:20:00.282Z,36.86
2023-02-22T16:22:34.756Z,36.96
2023-02-22T16:25:16.715Z,37.06
2023-02-22T16:27:52.769Z,37.22
2023-02-22T16:30:39.542Z,37.32
2023-02-22T16:33:13.512Z,37.51
2023-02-22T16:35:43.389Z,37.63
2023-02-22T16:38:16.881Z,37.79
2023-02-22T16:40:58.345Z,37.91
2023-02-22T16:43:29.837Z,38.12
2023-02-22T16:45:56.614Z,38.29
2023-02-22T16:48:38.985Z,38.41
2023-02-22T16:51:18.761Z,38.57
2023-02-22T16:53:46.967Z,38.72
2023-02-22T16:56:17.869Z,38.97
2023-02-22T16:58:47.273Z,39.09
2023-02-22T17:01:13.989Z,39.22
2023-02-22T17:03:40.725Z,39.46
2023-02-22T17:06:10.739Z,39.68
2023-02-22T17:08:42.009Z,39.87
2023-02-22T17:11:12.491Z,39.96
2023-02-22T17:13:40.612Z,40.10
2023-02-22T17:16:09.160Z,40.14
2023-02-22T17:18:35.879Z,40.34
2023-02-22T17:21:03.463Z,40.54
2023-02-22T17:23:30.076Z,40.75
2023-02-22T17:26:00.523Z,40.86
2023-02-22T17:28:27.328Z,41.11
2023-02-22T17:31:01.271Z,41.27
2023-02-22T17:33:33.251Z,41.42
2023-02-22T17:36:02.206Z,41.75
2023-02-22T17:38:30.299Z,41.92
2023-02-22T17:41:01.216Z,42.08
2023-02-22T17:43:29.213Z,42.23
2023-02-22T17:45:57.196Z,42.47
2023-02-22T17:48:24.683Z,42.61
2023-02-22T17:50:52.867Z,42.56
2023-02-22T17:53:24.879Z,42.77
2023-02-22T17:55:52.782Z,42.84
2023-02-22T17:58:19.679Z,42.89
2023-02-22T18:00:50.069Z,43.05
2023-02-22T18:03:25.853Z,43.18
2023-02-22T18:05:59.137Z,43.34
2023-02-22T18:08:29.489Z,43.54
2023-02-22T18:11:02.078Z,43.51
2023-02-22T18:13:30.330Z,43.60
2023-02-22T18:16:01.079Z,43.70
2023-02-22T18:18:28.321Z,43.74
2023-02-22T18:20:59.958Z,43.79
2023-02-22T18:23:30.718Z,43.98
2023-02-22T18:26:10.582Z,44.17
2023-02-22T18:28:38.281Z,44.27
2023-02-22T18:31:13.415Z,44.49
2023-02-22T18:33:43.318Z,44.55
2023-02-22T18:36:11.725Z,44.68
2023-02-22T18:38:42.910Z,44.71
2023-02-22T18:41:13.548Z,44.84
2023-02-22T18:43:41.134Z,44.96
2023-02-22T18:46:22.741Z,45.10
2023-02-22T18:48:53.977Z,45.27
2023-02-22T18:51:20.603Z,45.45
2023-02-22T18:53:48.003Z,45.60
2023-02-22T18:56:22.592Z,45.76
2023-02-22T18:58:54.265Z,45.93
2023-02-22T19:01:22.146Z,46.04
2023-02-22T19:03:49.019Z,46.21
2023-02-22T19:06:18.242Z,46.33
2023-02-22T19:08:46.249Z,46.51
2023-02-22T19:11:21.838Z,46.61
2023-02-22T19:13:53.864Z,46.82
2023-02-22T19:16:23.589Z,47.19
2023-02-22T19:18:52.674Z,47.62
2023-02-22T19:21:20.952Z,48.08
2023-02-22T19:23:49.181Z,48.51
2023-02-22T19:26:26.523Z,48.80
2023-02-22T19:28:56.245Z,49.08
2023-02-22T19:31:30.610Z,49.29
2023-02-22T19:34:08.634Z,49.56
2023-02-22T19:36:46.482Z,49.82
2023-02-22T19:39:15.493Z,50.15
2023-02-22T19:41:42.485Z,50.58
2023-02-22T19:44:09.289Z,50.87
2023-02-22T19:46:37.864Z,50.99
2023-02-22T19:49:06.033Z,51.14
2023-02-22T19:51:33.694Z,51.36
2023-02-22T19:54:04.412Z,51.65
2023-02-22T19:56:32.603Z,51.87
2023-02-22T19:59:09.208Z,51.93
2023-02-22T20:01:37.450Z,52.12
2023-02-22T20:04:08.960Z,52.23
2023-02-22T20:06:42.024Z,52.34
2023-02-22T20:09:14.147Z,52.55
2023-02-22T20:11:40.779Z,52.83
2023-02-22T20:14:07.521Z,52.89
2023-02-22T20:16:35.821Z,53.27
2023-02-22T20:19:02.508Z,53.18
2023-02-22T20:21:32.546Z,53.22
2023-02-22T20:24:01.103Z,53.32
2023-02-22T20:26:31.345Z,53.60
2023-02-22T20:28:58.787Z,53.84
2023-02-22T20:31:25.503Z,54.04
2023-02-22T20:33:57.677Z,54.13
2023-02-22T20:36:25.821Z,54.24
2023-02-22T20:38:55.314Z,54.29
2023-02-22T20:41:29.272Z,54.42
2023-02-22T20:43:57.469Z,54.49
2023-02-22T20:46:26.947Z,54.62
2023-02-22T20:48:55.939Z,54.69
2023-02-22T20:51:23.090Z,54.84
2023-02-22T20:53:50.273Z,54.89
2023-02-22T20:56:23.172Z,55.01
2023-02-22T20:58:50.657Z,55.18
2023-02-22T21:01:20.714Z,55.53
2023-02-22T21:03:48.049Z,55.45
2023-02-22T21:06:16.988Z,55.56
2023-02-22T21:08:46.190Z,55.68
2023-02-22T21:11:15.778Z,55.79
2023-02-22T21:13:42.449Z,55.90
2023-02-22T21:16:17.679Z,56.00
2023-02-22T21:18:44.376Z,55.95
2023-02-22T21:21:12.464Z,56.06
2023-02-22T21:23:41.259Z,56.07
2023-02-22T21:26:15.604Z,56.10
2023-02-22T21:28:51.226Z,56.11
2023-02-22T21:31:22.670Z,56.18
2023-02-22T21:33:53.017Z,56.21
2023-02-22T21:36:25.167Z,56.23
2023-02-22T21:38:56.344Z,56.32
2023-02-22T21:41:27.773Z,56.49
2023-02-22T21:43:57.204Z,56.54
2023-02-22T21:46:26.652Z,56.63
2023-02-22T21:48:53.427Z,56.83
2023-02-22T21:51:26.871Z,56.97
2023-02-22T21:53:55.052Z,57.02
2023-02-22T21:56:27.614Z,57.13
2023-02-22T21:59:07.560Z,57.22
2023-02-22T22:01:38.740Z,57.39
2023-02-22T22:04:05.500Z,57.67
2023-02-22T22:06:34.433Z,57.67
2023-02-22T22:09:05.058Z,57.71
2023-02-22T22:11:31.714Z,57.80
2023-02-22T22:13:59.687Z,57.87
2023-02-22T22:16:29.911Z,58.00
2023-02-22T22:18:56.982Z,58.05
2023-02-22T22:21:24.634Z,58.16
2023-02-22T22:23:56.096Z,58.27
2023-02-22T22:26:25.319Z,58.39
2023-02-22T22:28:57.535Z,58.44
2023-02-22T22:31:26.312Z,58.42
2023-02-22T22:33:56.272Z,58.63
2023-02-22T22:36:27.331Z,58.63
2023-02-22T22:38:57.747Z,58.76
2023-02-22T22:41:28.136Z,58.87
2023-02-22T22:43:55.658Z,58.99
2023-02-22T22:46:22.558Z,59.13
2023-02-22T22:48:49.412Z,59.20
2023-02-22T22:51:20.320Z,59.28
2023-02-22T22:53:49.448Z,59.48
2023-02-22T22:56:19.135Z,59.52
2023-02-22T22:58:58.213Z,59.76
2023-02-22T23:01:33.123Z,59.82
2023-02-22T23:04:02.978Z,59.90
2023-02-22T23:06:40.052Z,60.03
2023-02-22T23:09:26.318Z,60.14
2023-02-22T23:12:08.936Z,60.20
2023-02-22T23:14:43.865Z,60.35
2023-02-22T23:17:15.388Z,60.49
2023-02-22T23:19:47.291Z,60.67
2023-02-22T23:22:14.611Z,60.77
2023-02-22T23:24:42.883Z,60.87
2023-02-22T23:27:10.903Z,61.05
2023-02-22T23:29:41.588Z,61.12
2023-02-22T23:32:08.993Z,61.31
2023-02-22T23:34:36.983Z,61.35
2023-02-22T23:37:03.772Z,61.40
2023-02-22T23:39:30.396Z,61.45
2023-02-22T23:42:02.993Z,61.50
2023-02-22T23:44:30.088Z,61.59
2023-02-22T23:46:56.899Z,61.76
2023-02-22T23:49:36.036Z,61.88
2023-02-22T23:52:05.292Z,61.93
2023-02-22T23:54:36.578Z,62.02
2023-02-22T23:57:05.393Z,62.19
2023-02-22T23:59:33.661Z,62.14
